Terminal Aerodrome Forecast
Issued by NWS

Home | Current Version | Previous Version | Text Only | Print | Product List | Glossary On
Versions: 1 2 3 4 5 6 7 8 9 10 11 12 13 14 15
000
FTUS44 KLIX 240520
TAFGPT
TAF
KGPT 240520Z 2406/2506 00000KT P6SM SCT090 BKN110
     FM240900 00000KT P6SM FEW008 FEW110 PROB30 2415/2417 4SM -TSRA
      BKN008CB BKN010
     FM241700 14006KT P6SM BKN015 BKN100 PROB30 2417/2421 4SM -TSRA
      OVC007CB
     FM242100 18006KT P6SM -SHRA VCTS SCT015CB BKN100
     FM250000 18005KT P6SM SCT015 BKN100 PROB30 2500/2506 4SM -TSRA
      BKN008CB BKN010 BKN015=

USA.gov is the U.S. government's official web portal to all federal, state and local government web resources and services.